createdAt,value
2023-05-23T00:01:07.238Z,4.85
2023-05-23T00:03:55.842Z,4.25
2023-05-23T00:06:44.889Z,4.38
2023-05-23T00:09:30.596Z,4.88
2023-05-23T00:12:15.914Z,4.57
2023-05-23T00:15:01.342Z,4.50
2023-05-23T00:17:47.604Z,4.15
2023-05-23T00:20:35.140Z,4.45
2023-05-23T00:27:22.144Z,4.50
2023-05-23T00:31:00.171Z,4.97
2023-05-23T00:33:48.939Z,4.95
2023-05-23T00:36:37.785Z,4.50
2023-05-23T00:39:23.463Z,4.28
2023-05-23T00:42:23.559Z,4.50
2023-05-23T00:45:49.447Z,3.83
2023-05-23T00:48:36.366Z,5.25
2023-05-23T00:55:16.446Z,4.78
2023-05-23T00:58:02.460Z,4.10
2023-05-23T01:00:50.736Z,4.90
2023-05-23T01:03:36.751Z,4.50
2023-05-23T01:06:22.107Z,4.53
2023-05-23T01:09:09.583Z,4.05
2023-05-23T01:12:07.290Z,4.47
2023-05-23T01:15:06.496Z,4.50
2023-05-23T01:17:59.294Z,4.70
2023-05-23T01:20:50.650Z,4.95
2023-05-23T01:24:00.173Z,4.38
2023-05-23T01:27:01.952Z,4.50
2023-05-23T01:29:53.174Z,4.38
2023-05-23T01:32:40.127Z,5.05
2023-05-23T01:35:29.357Z,5.00
2023-05-23T01:38:14.512Z,4.60
2023-05-23T01:40:59.929Z,3.92
2023-05-23T01:43:45.081Z,4.57
2023-05-23T01:46:31.745Z,4.65
2023-05-23T01:49:18.460Z,4.50
2023-05-23T01:52:05.620Z,4.90
2023-05-23T01:54:52.941Z,4.30
2023-05-23T01:57:39.214Z,4.82
2023-05-23T02:00:25.023Z,4.70
2023-05-23T02:03:11.812Z,5.38
2023-05-23T02:05:57.577Z,4.95
2023-05-23T02:08:43.191Z,4.63
2023-05-23T02:11:28.535Z,4.70
2023-05-23T02:14:13.754Z,5.00
2023-05-23T02:17:00.459Z,4.95
2023-05-23T02:19:45.982Z,4.90
2023-05-23T02:22:31.524Z,5.32
2023-05-23T02:25:16.733Z,4.38
2023-05-23T02:28:02.298Z,4.53
2023-05-23T02:30:47.723Z,4.80
2023-05-23T02:33:33.139Z,4.80
2023-05-23T02:36:18.505Z,4.90
2023-05-23T02:39:04.005Z,4.53
2023-05-23T02:41:49.453Z,5.03
2023-05-23T02:44:35.116Z,5.53
2023-05-23T02:47:20.755Z,5.30
2023-05-23T02:50:07.780Z,4.78
2023-05-23T02:52:53.851Z,4.75
2023-05-23T02:55:40.371Z,5.35
2023-05-23T02:58:25.850Z,4.93
2023-05-23T03:01:11.977Z,5.03
2023-05-23T03:03:57.657Z,4.82
2023-05-23T03:06:44.606Z,5.38
2023-05-23T03:09:32.173Z,5.30
2023-05-23T03:12:17.736Z,5.32
2023-05-23T03:15:03.295Z,4.72
2023-05-23T03:17:49.390Z,4.43
2023-05-23T03:20:35.692Z,5.35
2023-05-23T03:23:21.024Z,5.30
2023-05-23T03:26:06.816Z,5.60
2023-05-23T03:28:52.190Z,5.80
2023-05-23T03:31:38.328Z,5.13
2023-05-23T03:34:23.914Z,5.13
2023-05-23T03:37:09.672Z,5.30
2023-05-23T03:39:54.872Z,5.53
2023-05-23T03:42:40.269Z,5.95
2023-05-23T03:45:27.928Z,5.35
2023-05-23T03:48:13.263Z,5.63
2023-05-23T03:50:59.889Z,5.93
2023-05-23T03:53:45.286Z,5.20
2023-05-23T03:56:30.566Z,5.53
2023-05-23T03:59:15.826Z,6.13
2023-05-23T04:02:01.348Z,5.75
2023-05-23T04:04:47.010Z,5.80
2023-05-23T04:07:34.829Z,5.72
2023-05-23T04:10:20.040Z,5.45
2023-05-23T04:13:06.614Z,5.18
2023-05-23T04:15:52.703Z,5.95
2023-05-23T04:18:39.190Z,5.57
2023-05-23T04:21:25.548Z,5.65
2023-05-23T04:24:23.644Z,5.60
2023-05-23T04:27:09.042Z,6.25
2023-05-23T04:29:56.496Z,6.18
2023-05-23T04:32:41.927Z,6.25
2023-05-23T04:35:28.403Z,5.70
2023-05-23T04:38:14.240Z,5.70
2023-05-23T04:40:59.887Z,5.78
2023-05-23T04:44:18.018Z,5.40
2023-05-23T04:47:28.074Z,6.53
2023-05-23T04:50:24.652Z,6.38
2023-05-23T04:53:09.996Z,5.80
2023-05-23T04:55:56.509Z,5.68
2023-05-23T04:58:42.423Z,5.60
2023-05-23T05:01:29.777Z,5.18
2023-05-23T05:04:16.110Z,6.57
2023-05-23T05:07:04.174Z,5.80
2023-05-23T05:09:49.510Z,6.50
2023-05-23T05:12:36.039Z,5.60
2023-05-23T05:15:21.366Z,6.18
2023-05-23T05:18:12.196Z,7.35
2023-05-23T05:20:58.624Z,6.20
2023-05-23T05:23:44.118Z,5.55
2023-05-23T05:26:29.723Z,5.35
2023-05-23T05:29:16.309Z,6.68
2023-05-23T05:32:03.375Z,6.30
2023-05-23T05:34:49.435Z,5.90
2023-05-23T05:37:36.351Z,5.95
2023-05-23T05:40:22.233Z,5.50
2023-05-23T05:43:07.408Z,6.57
2023-05-23T05:45:53.271Z,5.93
2023-05-23T05:48:38.629Z,6.68
2023-05-23T05:51:26.762Z,6.57
2023-05-23T05:54:13.136Z,6.45
2023-05-23T05:56:58.519Z,6.00
2023-05-23T05:59:44.277Z,6.60
2023-05-23T06:02:31.486Z,6.53
2023-05-23T06:05:16.855Z,5.97
2023-05-23T06:08:04.042Z,5.95
2023-05-23T06:10:49.438Z,6.20
2023-05-23T06:13:35.241Z,6.70
2023-05-23T06:16:20.969Z,6.22
2023-05-23T06:19:08.423Z,6.18
2023-05-23T06:21:55.634Z,6.15
2023-05-23T06:24:41.756Z,6.45
2023-05-23T06:27:27.111Z,6.47
2023-05-23T06:30:13.404Z,5.80
2023-05-23T06:32:58.713Z,6.20
2023-05-23T06:35:44.270Z,6.70
2023-05-23T06:38:33.489Z,12.98
2023-05-23T06:41:18.798Z,11.43
2023-05-23T06:44:03.934Z,15.52
2023-05-23T06:46:49.959Z,19.00
2023-05-23T06:49:35.309Z,18.50
2023-05-23T06:52:20.722Z,11.75
2023-05-23T06:55:06.877Z,8.70
2023-05-23T06:57:52.305Z,7.82
2023-05-23T07:00:39.727Z,7.53
2023-05-23T07:03:41.767Z,7.03
2023-05-23T07:06:27.590Z,6.32
2023-05-23T07:09:13.088Z,6.88
2023-05-23T07:11:59.439Z,6.85
2023-05-23T07:14:44.874Z,6.00
2023-05-23T07:17:30.280Z,6.28
2023-05-23T07:20:16.902Z,6.97
2023-05-23T07:23:03.503Z,7.05
2023-05-23T07:26:01.238Z,6.30
2023-05-23T07:28:55.090Z,7.00
2023-05-23T07:31:41.262Z,7.40
2023-05-23T07:34:28.282Z,7.50
2023-05-23T07:37:16.361Z,7.25
2023-05-23T07:40:07.727Z,6.65
2023-05-23T07:42:54.157Z,6.95
2023-05-23T07:45:39.661Z,7.03
2023-05-23T07:48:27.073Z,6.50
2023-05-23T07:51:12.597Z,6.55
2023-05-23T07:53:58.281Z,7.28
2023-05-23T07:56:43.945Z,6.10
2023-05-23T07:59:30.246Z,6.95
2023-05-23T08:02:16.479Z,6.72
2023-05-23T08:05:02.746Z,6.45
2023-05-23T08:07:48.448Z,7.15
2023-05-23T08:10:33.749Z,6.28
2023-05-23T08:13:28.418Z,6.70
2023-05-23T08:16:35.298Z,6.47
2023-05-23T08:19:21.194Z,6.40
2023-05-23T08:22:07.692Z,6.55
2023-05-23T08:24:52.685Z,5.90
2023-05-23T08:27:38.683Z,6.30
2023-05-23T08:30:36.737Z,6.38
2023-05-23T08:33:22.647Z,5.65
2023-05-23T08:36:11.563Z,6.68
2023-05-23T08:38:57.137Z,5.53
2023-05-23T08:41:52.699Z,5.82
2023-05-23T08:44:38.024Z,5.78
2023-05-23T08:47:23.898Z,5.72
2023-05-23T08:50:16.083Z,6.28
2023-05-23T08:53:03.227Z,6.83
2023-05-23T08:55:51.524Z,6.72
2023-05-23T08:58:41.851Z,6.35
2023-05-23T09:01:29.387Z,6.57
2023-05-23T09:04:17.635Z,6.50
2023-05-23T09:07:16.892Z,6.90
2023-05-23T09:10:07.074Z,6.25
2023-05-23T09:12:52.865Z,6.50
2023-05-23T09:15:38.638Z,5.75
2023-05-23T09:18:33.185Z,6.10
2023-05-23T09:21:18.899Z,6.72
2023-05-23T09:24:34.193Z,6.60
2023-05-23T09:27:19.885Z,6.30
2023-05-23T09:30:12.721Z,7.10
2023-05-23T09:33:03.916Z,6.85
2023-05-23T09:35:51.430Z,5.93
2023-05-23T09:38:46.209Z,6.20
2023-05-23T09:41:35.501Z,6.35
2023-05-23T09:47:08.327Z,7.30
2023-05-23T09:49:53.564Z,6.32
2023-05-23T09:52:39.921Z,6.13
2023-05-23T09:55:25.332Z,6.53
2023-05-23T09:58:11.285Z,6.72
2023-05-23T10:00:58.075Z,6.60
2023-05-23T10:03:55.947Z,6.97
2023-05-23T10:06:48.882Z,7.83
2023-05-23T10:09:38.018Z,7.18
2023-05-23T10:12:32.760Z,8.80
2023-05-23T10:15:18.988Z,8.60
2023-05-23T10:18:14.958Z,8.13
2023-05-23T10:21:09.494Z,8.15
2023-05-23T10:23:55.934Z,9.18
2023-05-23T10:26:41.376Z,8.93
2023-05-23T10:29:27.174Z,9.18
2023-05-23T10:32:15.003Z,8.73
2023-05-23T10:35:23.904Z,9.85
2023-05-23T10:38:24.431Z,8.83
2023-05-23T10:41:16.532Z,11.18
2023-05-23T10:44:13.003Z,10.55
2023-05-23T10:47:03.835Z,10.93
2023-05-23T10:49:54.413Z,9.90
2023-05-23T10:52:41.668Z,11.45
2023-05-23T10:55:31.124Z,11.65
2023-05-23T10:58:20.468Z,10.77
2023-05-23T11:01:08.756Z,13.27
2023-05-23T11:03:56.015Z,13.45
2023-05-23T11:06:44.447Z,12.93
2023-05-23T11:09:30.022Z,13.10
2023-05-23T11:12:15.637Z,12.25
2023-05-23T11:15:01.222Z,15.43
2023-05-23T11:17:54.976Z,18.33
2023-05-23T11:20:41.507Z,16.83
2023-05-23T11:23:41.797Z,16.23
2023-05-23T11:26:32.016Z,15.88
2023-05-23T11:29:17.651Z,17.00
2023-05-23T11:32:15.982Z,18.13
2023-05-23T11:37:49.451Z,17.45
2023-05-23T11:40:39.902Z,17.00
2023-05-23T11:43:26.022Z,17.73
2023-05-23T11:46:11.597Z,17.58
2023-05-23T11:48:57.150Z,19.58
2023-05-23T11:51:42.390Z,18.95
2023-05-23T11:54:28.287Z,18.10
2023-05-23T11:57:14.365Z,17.75
2023-05-23T11:59:59.739Z,16.95
2023-05-23T12:02:46.243Z,18.27
2023-05-23T12:05:31.689Z,18.73
2023-05-23T12:08:16.969Z,19.60
2023-05-23T12:11:02.979Z,17.08
2023-05-23T12:13:48.975Z,16.88
2023-05-23T12:16:35.123Z,17.17
2023-05-23T12:19:20.922Z,17.58
2023-05-23T12:22:07.896Z,17.48
2023-05-23T12:24:55.605Z,18.63
2023-05-23T12:27:44.088Z,17.08
2023-05-23T12:30:29.386Z,19.60
2023-05-23T12:33:15.027Z,19.20
2023-05-23T12:36:00.658Z,17.77
2023-05-23T12:38:45.856Z,19.17
2023-05-23T12:41:32.721Z,17.38
2023-05-23T12:44:18.313Z,18.88
2023-05-23T12:47:04.339Z,15.85
2023-05-23T12:49:49.940Z,15.30
2023-05-23T12:52:36.696Z,14.15
2023-05-23T12:55:22.169Z,14.32
2023-05-23T12:58:07.489Z,14.57
2023-05-23T13:00:52.952Z,13.30
2023-05-23T13:03:38.593Z,13.55
2023-05-23T13:06:23.894Z,14.20
2023-05-23T13:09:09.286Z,14.50
2023-05-23T13:11:55.049Z,14.63
2023-05-23T13:14:40.432Z,16.98
2023-05-23T13:17:25.836Z,19.40
2023-05-23T13:20:11.458Z,18.13
2023-05-23T13:23:00.874Z,19.67
2023-05-23T13:25:46.956Z,18.83
2023-05-23T13:28:33.410Z,18.98
2023-05-23T13:31:18.988Z,18.48
2023-05-23T13:34:04.259Z,19.75
2023-05-23T13:36:49.356Z,20.80
2023-05-23T13:39:34.892Z,20.90
2023-05-23T13:42:20.403Z,21.40
2023-05-23T13:45:06.530Z,20.20
2023-05-23T13:47:52.359Z,20.23
2023-05-23T13:50:37.822Z,18.70
2023-05-23T13:53:23.362Z,19.45
2023-05-23T13:56:09.450Z,20.35
2023-05-23T13:58:54.864Z,17.80
2023-05-23T14:01:40.850Z,19.98
2023-05-23T14:04:26.239Z,19.67
2023-05-23T14:07:11.388Z,19.40
2023-05-23T14:09:57.525Z,18.10
2023-05-23T14:12:43.083Z,19.02
2023-05-23T14:15:28.551Z,19.05
2023-05-23T14:18:13.828Z,21.65
2023-05-23T14:20:59.030Z,20.58
2023-05-23T14:23:44.396Z,20.17
2023-05-23T14:26:30.187Z,21.35
2023-05-23T14:29:16.063Z,20.20
2023-05-23T14:32:02.762Z,21.23
2023-05-23T14:34:48.194Z,22.90
2023-05-23T14:37:33.600Z,20.52
2023-05-23T14:40:19.111Z,19.60
2023-05-23T14:43:05.068Z,19.45
2023-05-23T14:45:50.332Z,19.27
2023-05-23T14:48:35.681Z,20.15
2023-05-23T14:51:34.726Z,19.88
2023-05-23T14:54:26.939Z,18.83
2023-05-23T14:57:12.258Z,17.67
2023-05-23T14:59:57.402Z,18.23
2023-05-23T15:02:42.682Z,18.30
2023-05-23T15:05:27.895Z,13.45
2023-05-23T15:08:13.602Z,11.35
2023-05-23T15:10:59.422Z,9.40
2023-05-23T15:13:45.075Z,9.27
2023-05-23T15:16:33.413Z,8.32
2023-05-23T15:19:19.268Z,7.63
2023-05-23T15:22:05.201Z,7.38
2023-05-23T15:24:50.464Z,6.90
2023-05-23T15:27:36.153Z,6.65
2023-05-23T15:30:24.317Z,7.05
2023-05-23T15:33:09.732Z,9.65
2023-05-23T15:35:55.215Z,6.97
2023-05-23T15:38:40.462Z,8.57
2023-05-23T15:41:26.557Z,8.20
2023-05-23T15:44:14.709Z,8.15
2023-05-23T15:47:00.235Z,7.90
2023-05-23T15:49:45.585Z,7.80
2023-05-23T15:52:30.664Z,7.28
2023-05-23T15:55:15.919Z,7.50
2023-05-23T15:58:01.046Z,9.18
2023-05-23T16:00:46.443Z,8.55
2023-05-23T16:03:32.011Z,8.27
2023-05-23T16:06:17.337Z,8.63
2023-05-23T16:09:03.149Z,11.13
2023-05-23T16:11:48.765Z,11.48
2023-05-23T16:14:33.920Z,14.13
2023-05-23T16:17:19.416Z,12.65
2023-05-23T16:20:05.195Z,12.48
2023-05-23T16:22:51.152Z,11.95
2023-05-23T16:25:36.211Z,10.30
2023-05-23T16:28:21.779Z,10.13
2023-05-23T16:31:07.277Z,9.60
2023-05-23T16:33:52.686Z,10.23
2023-05-23T16:36:38.037Z,10.07
2023-05-23T16:39:23.299Z,9.75
2023-05-23T16:42:08.700Z,9.60
2023-05-23T16:44:54.002Z,9.52
2023-05-23T16:47:39.138Z,9.52
2023-05-23T16:50:24.500Z,10.00
2023-05-23T16:53:09.665Z,9.38
2023-05-23T16:55:54.909Z,10.18
2023-05-23T16:58:41.687Z,10.18
2023-05-23T17:01:29.539Z,9.10
2023-05-23T17:04:15.058Z,9.20
2023-05-23T17:07:00.428Z,6.85
2023-05-23T17:09:46.017Z,7.05
2023-05-23T17:12:31.760Z,7.63
2023-05-23T17:15:16.849Z,6.55
2023-05-23T17:18:02.487Z,6.07
2023-05-23T17:20:48.085Z,4.93
2023-05-23T17:23:33.573Z,4.53
2023-05-23T17:26:19.805Z,5.00
2023-05-23T17:29:05.345Z,4.35
2023-05-23T17:31:50.935Z,3.92
2023-05-23T17:34:36.424Z,3.45
2023-05-23T17:37:21.796Z,3.63
2023-05-23T17:40:07.610Z,3.67
2023-05-23T17:42:53.002Z,3.47
2023-05-23T17:45:38.997Z,4.22
2023-05-23T17:48:38.289Z,4.03
2023-05-23T17:51:29.827Z,4.03
2023-05-23T17:54:15.147Z,3.63
2023-05-23T17:57:00.415Z,4.22
2023-05-23T17:59:46.026Z,3.88
2023-05-23T18:02:31.436Z,3.78
2023-05-23T18:05:19.685Z,4.57
2023-05-23T18:08:05.410Z,4.72
2023-05-23T18:10:51.187Z,4.53
2023-05-23T18:13:36.378Z,4.95
2023-05-23T18:16:22.182Z,4.65
2023-05-23T18:19:07.625Z,5.43
2023-05-23T18:21:53.636Z,5.38
2023-05-23T18:24:40.426Z,4.95
2023-05-23T18:27:25.994Z,6.25
2023-05-23T18:30:11.980Z,5.13
2023-05-23T18:32:58.806Z,4.97
2023-05-23T18:35:44.464Z,6.05
2023-05-23T18:38:30.885Z,5.32
2023-05-23T18:41:16.448Z,6.28
2023-05-23T18:44:02.077Z,5.22
2023-05-23T18:46:47.254Z,5.43
2023-05-23T18:49:32.665Z,4.78
2023-05-23T18:52:18.037Z,6.22
2023-05-23T18:55:03.738Z,5.03
2023-05-23T18:57:48.972Z,5.38
2023-05-23T19:00:34.355Z,5.18
2023-05-23T19:03:20.077Z,5.28
2023-05-23T19:06:07.029Z,4.53
2023-05-23T19:08:52.384Z,5.55
2023-05-23T19:11:37.928Z,5.90
2023-05-23T19:14:23.599Z,6.30
2023-05-23T19:17:09.409Z,6.32
2023-05-23T19:19:55.099Z,5.68
2023-05-23T19:22:51.037Z,5.30
2023-05-23T19:25:37.803Z,6.00
2023-05-23T19:28:22.897Z,5.53
2023-05-23T19:31:08.099Z,5.82
2023-05-23T19:33:53.251Z,5.07
2023-05-23T19:36:38.487Z,5.05
2023-05-23T19:39:23.707Z,5.30
2023-05-23T19:42:08.971Z,4.28
2023-05-23T19:44:54.650Z,5.47
2023-05-23T19:47:40.755Z,4.75
2023-05-23T19:50:26.014Z,5.43
2023-05-23T19:53:11.473Z,5.10
2023-05-23T19:55:57.553Z,5.10
2023-05-23T19:58:43.211Z,4.75
2023-05-23T20:01:30.662Z,5.00
2023-05-23T20:04:16.444Z,5.40
2023-05-23T20:07:01.668Z,5.47
2023-05-23T20:09:46.869Z,5.55
2023-05-23T20:12:32.221Z,5.70
2023-05-23T20:15:24.591Z,5.50
2023-05-23T20:18:17.004Z,5.80
2023-05-23T20:21:05.047Z,4.55
2023-05-23T20:23:51.060Z,4.88
2023-05-23T20:26:36.231Z,5.72
2023-05-23T20:29:21.509Z,5.15
2023-05-23T20:32:06.840Z,4.95
2023-05-23T20:34:52.722Z,4.68
2023-05-23T20:37:39.100Z,6.10
2023-05-23T20:40:25.660Z,4.50
2023-05-23T20:43:11.197Z,5.85
2023-05-23T20:45:57.243Z,6.43
2023-05-23T20:48:42.586Z,4.85
2023-05-23T20:51:27.811Z,5.53
2023-05-23T20:54:13.043Z,5.00
2023-05-23T20:56:58.856Z,5.05
2023-05-23T20:59:44.269Z,4.75
2023-05-23T21:02:29.491Z,4.90
2023-05-23T21:05:14.682Z,4.32
2023-05-23T21:07:59.765Z,4.47
2023-05-23T21:10:49.108Z,4.07
2023-05-23T21:13:37.708Z,4.38
2023-05-23T21:16:25.037Z,4.95
2023-05-23T21:19:10.717Z,4.15
2023-05-23T21:21:56.190Z,4.53
2023-05-23T21:24:41.821Z,4.53
2023-05-23T21:27:29.035Z,4.50
2023-05-23T21:30:15.288Z,4.90
2023-05-23T21:33:00.556Z,4.35
2023-05-23T21:35:45.947Z,4.38
2023-05-23T21:38:31.254Z,4.57
2023-05-23T21:41:16.602Z,4.97
2023-05-23T21:44:01.760Z,4.88
2023-05-23T21:46:47.427Z,4.43
2023-05-23T21:49:35.091Z,4.72
2023-05-23T21:52:20.850Z,4.00
2023-05-23T21:55:06.421Z,4.22
2023-05-23T21:57:51.376Z,4.35
2023-05-23T22:00:36.971Z,4.18
2023-05-23T22:03:22.193Z,4.45
2023-05-23T22:06:07.601Z,4.78
2023-05-23T22:08:53.230Z,4.68
2023-05-23T22:11:38.877Z,5.50
2023-05-23T22:14:24.402Z,4.63
2023-05-23T22:17:09.945Z,4.40
2023-05-23T22:19:58.000Z,4.28
2023-05-23T22:22:43.197Z,4.80
2023-05-23T22:25:32.691Z,4.50
2023-05-23T22:28:18.033Z,4.25
2023-05-23T22:31:03.410Z,4.57
2023-05-23T22:33:48.480Z,4.90
2023-05-23T22:36:34.080Z,4.70
2023-05-23T22:39:19.361Z,3.75
2023-05-23T22:42:04.939Z,5.10
2023-05-23T22:44:50.492Z,3.95
2023-05-23T22:47:35.933Z,5.05
2023-05-23T22:50:22.471Z,3.63
2023-05-23T22:53:11.552Z,4.75
2023-05-23T22:55:57.395Z,4.20
2023-05-23T22:58:42.874Z,3.97
2023-05-23T23:01:28.411Z,4.22
2023-05-23T23:04:13.629Z,4.35
2023-05-23T23:07:02.625Z,3.85
2023-05-23T23:09:49.039Z,4.78
2023-05-23T23:12:36.915Z,4.90
2023-05-23T23:15:24.577Z,4.07
2023-05-23T23:18:10.239Z,3.78
2023-05-23T23:20:55.371Z,4.63
2023-05-23T23:23:42.394Z,4.07
2023-05-23T23:26:27.685Z,3.15
2023-05-23T23:29:13.272Z,4.30
2023-05-23T23:31:59.715Z,3.92
2023-05-23T23:34:44.871Z,4.10
2023-05-23T23:37:30.278Z,4.32
2023-05-23T23:40:15.516Z,3.40
2023-05-23T23:43:00.634Z,3.63
2023-05-23T23:45:45.672Z,4.35
2023-05-23T23:48:30.977Z,4.65
2023-05-23T23:51:16.397Z,3.97
2023-05-23T23:54:01.608Z,5.38
2023-05-23T23:56:46.901Z,4.20
2023-05-23T23:59:31.973Z,4.15
